createdAt,value
2022-08-04T00:00:37.163Z,90.80
2022-08-04T00:03:23.223Z,91.20
2022-08-04T00:06:12.919Z,92.10
2022-08-04T00:08:49.494Z,92.10
2022-08-04T00:11:17.067Z,92.40
2022-08-04T00:13:58.071Z,92.60
2022-08-04T00:16:13.239Z,92.50
2022-08-04T00:18:40.821Z,92.60
2022-08-04T00:21:09.193Z,93.30
2022-08-04T00:24:12.336Z,93.00
2022-08-04T00:26:04.385Z,93.10
2022-08-04T00:28:31.970Z,93.20
2022-08-04T00:30:59.582Z,93.10
2022-08-04T00:33:27.156Z,93.20
2022-08-04T00:35:54.862Z,93.30
2022-08-04T00:38:23.644Z,93.60
2022-08-04T00:41:09.927Z,93.60
2022-08-04T00:43:43.044Z,93.70
2022-08-04T00:46:20.251Z,94.30
2022-08-04T00:49:08.851Z,94.30
2022-08-04T00:51:42.137Z,94.50
2022-08-04T00:54:12.563Z,94.60
2022-08-04T00:56:52.208Z,94.70
2022-08-04T00:59:34.651Z,94.90
2022-08-04T01:02:18.657Z,95.50
2022-08-04T01:04:46.231Z,95.50
2022-08-04T01:07:22.429Z,95.10
2022-08-04T01:10:05.236Z,95.20
2022-08-04T01:13:01.640Z,95.00
2022-08-04T01:15:59.632Z,95.00
2022-08-04T01:18:42.257Z,95.20
2022-08-04T01:21:47.768Z,95.30
2022-08-04T01:24:24.589Z,95.30
2022-08-04T01:26:58.669Z,95.50
2022-08-04T01:29:27.458Z,95.90
2022-08-04T01:31:56.233Z,96.20
2022-08-04T01:34:24.205Z,96.50
2022-08-04T01:36:51.834Z,97.00
2022-08-04T01:39:38.153Z,97.40
2022-08-04T01:42:05.737Z,97.10
2022-08-04T01:44:33.321Z,96.80
2022-08-04T01:47:00.936Z,96.90
2022-08-04T01:49:40.418Z,96.60
2022-08-04T01:52:01.469Z,96.70
2022-08-04T01:54:29.063Z,96.90
2022-08-04T01:56:56.657Z,97.20
2022-08-04T01:59:24.976Z,97.60
2022-08-04T02:01:52.683Z,97.60
2022-08-04T02:04:23.345Z,97.80
2022-08-04T02:06:53.506Z,98.00
2022-08-04T02:09:24.169Z,98.10
2022-08-04T02:12:06.443Z,98.10
2022-08-04T02:14:42.546Z,97.80
2022-08-04T02:17:13.173Z,98.10
2022-08-04T02:19:56.564Z,98.50
2022-08-04T02:22:24.139Z,98.40
2022-08-04T02:24:51.712Z,98.60
2022-08-04T02:27:19.498Z,98.90
2022-08-04T02:29:46.910Z,99.10
2022-08-04T02:32:27.136Z,99.50
2022-08-04T02:34:54.719Z,99.50
2022-08-04T02:37:22.514Z,99.60
2022-08-04T02:39:49.934Z,99.80
2022-08-04T02:42:17.513Z,99.90
2022-08-04T02:44:45.043Z,99.90
2022-08-04T02:47:12.682Z,99.90
2022-08-04T02:49:41.225Z,99.90
2022-08-04T02:52:07.795Z,99.90
2022-08-04T02:54:35.420Z,99.90
2022-08-04T02:57:07.989Z,99.90
2022-08-04T02:59:31.344Z,99.90
2022-08-04T03:01:59.707Z,99.90
2022-08-04T03:04:48.578Z,99.90
2022-08-04T03:07:54.955Z,99.90
2022-08-04T03:10:38.058Z,99.90
2022-08-04T03:13:29.783Z,99.90
2022-08-04T03:16:03.416Z,99.90
2022-08-04T03:18:53.108Z,99.90
2022-08-04T03:21:41.714Z,99.90
2022-08-04T03:24:30.181Z,99.90
2022-08-04T03:26:58.533Z,99.90
2022-08-04T03:30:03.129Z,99.90
2022-08-04T03:32:33.355Z,99.90
2022-08-04T03:35:31.856Z,99.90
2022-08-04T03:38:14.434Z,99.90
2022-08-04T03:41:10.694Z,99.90
2022-08-04T03:43:59.106Z,99.90
2022-08-04T03:46:41.706Z,99.90
2022-08-04T03:49:28.283Z,99.90
2022-08-04T03:52:20.305Z,99.90
2022-08-04T03:54:59.625Z,99.90
2022-08-04T03:57:39.330Z,99.90
2022-08-04T04:00:10.055Z,99.90
2022-08-04T04:02:53.367Z,99.90
2022-08-04T04:06:00.458Z,99.90
2022-08-04T04:08:12.577Z,99.90
2022-08-04T04:10:55.289Z,99.90
2022-08-04T04:13:41.522Z,99.90
2022-08-04T04:16:15.067Z,99.90
2022-08-04T04:18:54.312Z,99.90
2022-08-04T04:21:28.345Z,99.90
2022-08-04T04:24:14.096Z,99.90
2022-08-04T04:26:49.230Z,99.90
2022-08-04T04:29:34.656Z,99.90
2022-08-04T04:32:05.165Z,99.90
2022-08-04T04:34:35.446Z,99.90
2022-08-04T04:37:15.082Z,99.90
2022-08-04T04:40:07.035Z,99.90
2022-08-04T04:42:36.700Z,99.90
2022-08-04T04:45:06.741Z,99.90
2022-08-04T04:48:08.595Z,99.90
2022-08-04T04:50:36.994Z,99.90
2022-08-04T04:53:10.364Z,99.90
2022-08-04T04:55:42.992Z,99.90
2022-08-04T04:58:08.979Z,99.90
2022-08-04T05:01:12.885Z,99.90
2022-08-04T05:04:17.088Z,99.90
2022-08-04T05:06:44.711Z,99.90
2022-08-04T05:09:49.641Z,99.90
2022-08-04T05:14:26.378Z,99.90
2022-08-04T05:15:05.869Z,99.90
2022-08-04T05:17:39.037Z,99.90
2022-08-04T05:20:07.408Z,99.90
2022-08-04T05:22:34.983Z,99.90
2022-08-04T05:25:05.580Z,99.90
2022-08-04T05:27:51.172Z,99.90
2022-08-04T05:30:19.513Z,99.90
2022-08-04T05:32:59.090Z,99.90
2022-08-04T05:36:15.980Z,99.90
2022-08-04T05:38:01.507Z,99.90
2022-08-04T05:40:19.558Z,99.90
2022-08-04T05:42:47.163Z,99.90
2022-08-04T05:45:14.737Z,99.90
2022-08-04T05:47:43.078Z,99.90
2022-08-04T05:50:10.682Z,99.90
2022-08-04T05:52:39.034Z,99.90
2022-08-04T05:55:06.814Z,99.90
2022-08-04T05:57:34.467Z,99.90
2022-08-04T06:00:10.486Z,99.90
2022-08-04T06:02:30.388Z,99.90
2022-08-04T06:04:57.987Z,99.90
2022-08-04T06:07:26.320Z,99.90
2022-08-04T06:09:53.924Z,99.90
2022-08-04T06:12:24.480Z,99.90
2022-08-04T06:14:52.083Z,99.90
2022-08-04T06:19:58.817Z,99.90
2022-08-04T06:20:00.401Z,99.90
2022-08-04T06:22:20.518Z,99.90
2022-08-04T06:24:48.097Z,99.90
2022-08-04T06:27:15.708Z,99.90
2022-08-04T06:29:50.636Z,99.90
2022-08-04T06:32:27.963Z,99.90
2022-08-04T06:34:41.263Z,99.80
2022-08-04T06:37:08.877Z,99.80
2022-08-04T06:39:37.268Z,99.20
2022-08-04T06:42:21.522Z,99.20
2022-08-04T06:44:32.377Z,98.80
2022-08-04T06:46:59.962Z,98.20
2022-08-04T06:49:27.594Z,97.50
2022-08-04T06:51:55.179Z,97.50
2022-08-04T06:54:22.745Z,97.40
2022-08-04T06:56:50.627Z,97.20
2022-08-04T06:59:18.206Z,96.80
2022-08-04T07:01:46.616Z,96.30
2022-08-04T07:04:14.173Z,96.30
2022-08-04T07:06:41.746Z,95.90
2022-08-04T07:09:09.330Z,95.70
2022-08-04T07:11:39.743Z,95.40
2022-08-04T07:14:04.518Z,94.90
2022-08-04T07:16:32.092Z,94.00
2022-08-04T07:19:09.987Z,93.40
2022-08-04T07:21:27.312Z,93.00
2022-08-04T07:23:54.893Z,92.70
2022-08-04T07:26:22.508Z,92.40
2022-08-04T07:28:50.090Z,92.10
2022-08-04T07:31:33.172Z,92.00
2022-08-04T07:33:45.284Z,91.80
2022-08-04T07:36:12.871Z,91.50
2022-08-04T07:38:50.993Z,91.10
2022-08-04T07:43:35.663Z,90.30
2022-08-04T07:46:03.237Z,90.00
2022-08-04T07:48:30.851Z,89.90
2022-08-04T07:50:58.470Z,89.00
2022-08-04T07:53:54.766Z,88.60
2022-08-04T07:55:54.420Z,88.00
2022-08-04T07:58:22.773Z,87.30
2022-08-04T08:00:50.347Z,87.20
2022-08-04T08:03:18.014Z,86.60
2022-08-04T08:06:16.493Z,85.70
2022-08-04T08:08:13.118Z,85.40
2022-08-04T08:10:40.730Z,84.60
2022-08-04T08:13:08.306Z,83.90
2022-08-04T08:15:35.890Z,81.20
2022-08-04T08:18:03.769Z,80.10
2022-08-04T08:20:31.513Z,79.00
2022-08-04T08:22:59.757Z,75.60
2022-08-04T08:25:27.318Z,75.60
2022-08-04T08:27:55.929Z,74.10
2022-08-04T08:30:22.516Z,72.80
2022-08-04T08:32:50.080Z,71.90
2022-08-04T08:35:17.653Z,71.30
2022-08-04T08:37:47.680Z,71.40
2022-08-04T08:40:40.050Z,69.90
2022-08-04T08:42:54.614Z,69.30
2022-08-04T08:45:44.293Z,69.50
2022-08-04T08:48:36.241Z,69.30
2022-08-04T08:51:07.157Z,68.90
2022-08-04T08:53:49.769Z,68.80
2022-08-04T08:56:31.392Z,68.70
2022-08-04T08:59:15.048Z,68.50
2022-08-04T09:02:04.157Z,68.50
2022-08-04T09:04:56.061Z,67.70
2022-08-04T09:07:29.696Z,66.80
2022-08-04T09:10:09.578Z,66.00
2022-08-04T09:12:52.150Z,65.10
2022-08-04T09:15:25.225Z,64.70
2022-08-04T09:17:58.274Z,63.80
2022-08-04T09:20:25.848Z,62.50
2022-08-04T09:22:59.516Z,61.40
2022-08-04T09:25:45.719Z,59.20
2022-08-04T09:28:50.743Z,59.80
2022-08-04T09:30:58.543Z,58.30
2022-08-04T09:33:44.561Z,56.90
2022-08-04T09:36:25.613Z,56.80
2022-08-04T09:39:02.578Z,56.10
2022-08-04T09:41:53.991Z,54.80
2022-08-04T09:44:49.358Z,53.60
2022-08-04T09:46:54.604Z,53.10
2022-08-04T09:49:22.498Z,52.70
2022-08-04T09:51:58.143Z,51.60
2022-08-04T09:54:42.690Z,50.30
2022-08-04T09:57:16.289Z,50.20
2022-08-04T09:59:58.800Z,49.60
2022-08-04T10:02:26.385Z,49.70
2022-08-04T10:04:54.717Z,47.50
2022-08-04T10:07:28.435Z,47.50
2022-08-04T10:09:58.687Z,45.40
2022-08-04T10:12:48.385Z,43.60
2022-08-04T10:15:21.985Z,43.50
2022-08-04T10:18:01.601Z,42.60
2022-08-04T10:20:36.559Z,42.90
2022-08-04T10:23:16.205Z,42.90
2022-08-04T10:26:07.102Z,42.90
2022-08-04T10:28:17.114Z,42.80
2022-08-04T10:30:50.698Z,42.70
2022-08-04T10:33:26.727Z,42.40
2022-08-04T10:36:07.239Z,42.60
2022-08-04T10:38:37.484Z,41.90
2022-08-04T10:41:05.817Z,41.00
2022-08-04T10:43:36.469Z,40.40
2022-08-04T10:46:19.334Z,40.00
2022-08-04T10:49:08.069Z,39.50
2022-08-04T10:51:58.380Z,38.60
2022-08-04T10:54:19.584Z,38.60
2022-08-04T10:56:53.987Z,38.10
2022-08-04T10:59:39.749Z,38.10
2022-08-04T11:02:16.536Z,38.40
2022-08-04T11:04:43.157Z,38.00
2022-08-04T11:07:10.722Z,37.70
2022-08-04T11:09:38.297Z,37.20
2022-08-04T11:12:11.541Z,36.70
2022-08-04T11:14:44.741Z,36.00
2022-08-04T11:17:12.312Z,36.60
2022-08-04T11:19:53.905Z,37.70
2022-08-04T11:22:24.465Z,37.60
2022-08-04T11:25:14.758Z,38.30
2022-08-04T11:27:57.090Z,38.30
2022-08-04T11:30:24.702Z,38.50
2022-08-04T11:33:10.146Z,38.50
2022-08-04T11:35:56.604Z,39.00
2022-08-04T11:38:39.716Z,39.20
2022-08-04T11:41:10.157Z,39.20
2022-08-04T11:44:01.627Z,39.40
2022-08-04T11:46:27.349Z,39.30
2022-08-04T11:49:16.092Z,38.90
2022-08-04T11:51:43.710Z,39.20
2022-08-04T11:54:12.057Z,38.50
2022-08-04T11:56:39.631Z,39.00
2022-08-04T11:59:07.314Z,38.80
2022-08-04T12:01:43.771Z,38.20
2022-08-04T12:04:15.292Z,37.20
2022-08-04T12:06:50.939Z,37.70
2022-08-04T12:09:34.829Z,37.40
2022-08-04T12:12:27.196Z,36.80
2022-08-04T12:15:01.230Z,36.40
2022-08-04T12:17:33.673Z,36.60
2022-08-04T12:20:03.923Z,35.80
2022-08-04T12:22:29.847Z,35.60
2022-08-04T12:24:55.662Z,35.50
2022-08-04T12:27:30.633Z,35.40
2022-08-04T12:30:57.310Z,35.40
2022-08-04T12:32:25.013Z,35.30
2022-08-04T12:34:58.708Z,35.20
2022-08-04T12:37:44.006Z,35.30
2022-08-04T12:40:27.892Z,36.20
2022-08-04T12:42:56.005Z,35.60
2022-08-04T12:45:11.062Z,35.60
2022-08-04T12:47:38.923Z,35.50
2022-08-04T12:50:06.358Z,35.30
2022-08-04T12:52:59.155Z,35.20
2022-08-04T12:55:02.302Z,34.70
2022-08-04T12:57:29.878Z,35.20
2022-08-04T12:59:58.141Z,34.40
2022-08-04T13:02:27.626Z,34.30
2022-08-04T13:04:55.169Z,34.60
2022-08-04T13:07:23.008Z,34.80
2022-08-04T13:09:50.357Z,34.90
2022-08-04T13:12:31.915Z,34.80
2022-08-04T13:14:51.718Z,35.00
2022-08-04T13:17:19.647Z,34.90
2022-08-04T13:19:50.196Z,34.50
2022-08-04T13:22:26.498Z,34.40
2022-08-04T13:25:18.155Z,34.50
2022-08-04T13:27:22.112Z,34.60
2022-08-04T13:29:59.457Z,34.60
2022-08-04T13:32:18.325Z,34.30
2022-08-04T13:34:49.182Z,34.20
2022-08-04T13:37:20.908Z,34.20
2022-08-04T13:39:55.534Z,34.10
2022-08-04T13:42:16.044Z,33.70
2022-08-04T13:44:46.356Z,33.60
2022-08-04T13:47:14.790Z,33.30
2022-08-04T13:50:01.266Z,33.20
2022-08-04T13:52:11.187Z,33.10
2022-08-04T13:54:43.639Z,33.20
2022-08-04T13:57:20.071Z,33.20
2022-08-04T13:59:47.633Z,33.20
2022-08-04T14:02:25.046Z,33.50
2022-08-04T14:04:52.629Z,33.30
2022-08-04T14:07:20.934Z,33.30
2022-08-04T14:10:03.468Z,33.10
2022-08-04T14:12:38.843Z,33.10
2022-08-04T14:14:45.969Z,32.90
2022-08-04T14:17:19.687Z,32.80
2022-08-04T14:19:50.120Z,32.70
2022-08-04T14:22:27.545Z,32.90
2022-08-04T14:25:00.722Z,32.50
2022-08-04T14:27:31.012Z,32.50
2022-08-04T14:29:58.658Z,32.60
2022-08-04T14:32:27.173Z,33.00
2022-08-04T14:34:54.542Z,32.90
2022-08-04T14:37:22.116Z,32.60
2022-08-04T14:40:18.834Z,32.80
2022-08-04T14:42:19.757Z,32.70
2022-08-04T14:44:56.871Z,33.10
2022-08-04T14:47:39.708Z,33.00
2022-08-04T14:50:07.413Z,33.00
2022-08-04T14:52:34.975Z,33.20
2022-08-04T14:55:21.088Z,33.40
2022-08-04T14:58:33.694Z,33.40
2022-08-04T15:00:28.153Z,33.60
2022-08-04T15:02:58.427Z,33.70
2022-08-04T15:05:55.577Z,33.90
2022-08-04T15:07:53.609Z,33.90
2022-08-04T15:10:21.952Z,34.20
2022-08-04T15:12:49.536Z,33.90
2022-08-04T15:15:35.804Z,33.80
2022-08-04T15:17:44.772Z,33.90
2022-08-04T15:20:12.327Z,33.30
2022-08-04T15:22:41.092Z,33.40
2022-08-04T15:25:08.824Z,33.30
2022-08-04T15:27:36.398Z,33.40
2022-08-04T15:30:04.076Z,33.80
2022-08-04T15:32:49.840Z,34.10
2022-08-04T15:35:26.593Z,34.10
2022-08-04T15:37:56.805Z,33.90
2022-08-04T15:40:33.253Z,34.00
2022-08-04T15:43:01.208Z,34.10
2022-08-04T15:46:30.750Z,34.30
2022-08-04T15:48:03.233Z,35.40
2022-08-04T15:50:30.793Z,34.80
2022-08-04T15:53:12.704Z,35.00
2022-08-04T15:55:34.438Z,35.20
2022-08-04T15:58:02.505Z,35.80
2022-08-04T16:00:30.080Z,35.80
2022-08-04T16:02:57.693Z,36.00
2022-08-04T16:05:25.276Z,36.50
2022-08-04T16:08:07.915Z,36.70
2022-08-04T16:10:38.311Z,37.00
2022-08-04T16:13:11.482Z,37.40
2022-08-04T16:15:41.865Z,37.80
2022-08-04T16:18:14.165Z,37.90
2022-08-04T16:20:37.768Z,38.30
2022-08-04T16:23:37.437Z,38.20
2022-08-04T16:25:45.062Z,38.50
2022-08-04T16:28:40.181Z,38.80
2022-08-04T16:31:07.768Z,39.10
2022-08-04T16:33:43.581Z,39.20
2022-08-04T16:36:08.077Z,39.80
2022-08-04T16:38:32.053Z,39.80
2022-08-04T16:40:59.638Z,39.70
2022-08-04T16:43:29.997Z,40.00
2022-08-04T16:46:03.297Z,40.20
2022-08-04T16:48:33.607Z,40.70
2022-08-04T16:51:07.684Z,40.80
2022-08-04T16:54:04.184Z,40.80
2022-08-04T16:56:05.507Z,41.00
2022-08-04T16:58:33.918Z,41.40
2022-08-04T17:01:10.272Z,41.40
2022-08-04T17:03:37.731Z,41.60
2022-08-04T17:06:11.036Z,41.70
2022-08-04T17:08:38.615Z,41.70
2022-08-04T17:11:06.253Z,42.00
2022-08-04T17:14:03.975Z,42.00
2022-08-04T17:16:01.533Z,42.40
2022-08-04T17:18:29.873Z,42.60
2022-08-04T17:21:01.351Z,42.60
2022-08-04T17:24:13.427Z,42.30
2022-08-04T17:26:12.098Z,42.10
2022-08-04T17:28:47.248Z,42.30
2022-08-04T17:31:05.710Z,42.70
2022-08-04T17:33:54.750Z,42.20
2022-08-04T17:36:00.908Z,43.40
2022-08-04T17:38:34.249Z,44.00
2022-08-04T17:41:18.865Z,44.20
2022-08-04T17:44:02.764Z,43.90
2022-08-04T17:46:15.953Z,42.20
2022-08-04T17:48:43.534Z,42.20
2022-08-04T17:51:17.976Z,43.20
2022-08-04T17:53:45.642Z,43.10
2022-08-04T17:56:52.002Z,43.90
2022-08-04T17:59:57.228Z,43.80
2022-08-04T18:01:52.214Z,44.00
2022-08-04T18:04:36.524Z,43.80
2022-08-04T18:07:04.109Z,44.10
2022-08-04T18:09:56.856Z,44.20
2022-08-04T18:12:02.950Z,44.80
2022-08-04T18:14:45.676Z,44.80
2022-08-04T18:17:17.969Z,45.20
2022-08-04T18:19:52.778Z,45.50
2022-08-04T18:22:27.720Z,45.90
2022-08-04T18:24:56.752Z,46.30
2022-08-04T18:27:16.354Z,47.10
2022-08-04T18:30:14.698Z,47.00
2022-08-04T18:32:11.741Z,47.30
2022-08-04T18:34:40.842Z,47.90
2022-08-04T18:38:03.314Z,48.20
2022-08-04T18:40:09.389Z,48.70
2022-08-04T18:42:04.433Z,49.10
2022-08-04T18:44:30.934Z,49.50
2022-08-04T18:46:57.262Z,49.90
2022-08-04T18:51:52.769Z,50.40
2022-08-04T18:54:20.339Z,50.40
2022-08-04T18:57:24.907Z,50.00
2022-08-04T18:59:15.911Z,49.80
2022-08-04T19:02:13.348Z,49.90
2022-08-04T19:04:32.282Z,50.70
2022-08-04T19:09:26.482Z,50.30
2022-08-04T19:11:55.497Z,50.50
2022-08-04T19:14:22.450Z,50.60
2022-08-04T19:16:50.030Z,51.10
2022-08-04T19:19:17.644Z,51.40
2022-08-04T19:24:32.030Z,52.30
2022-08-04T19:26:40.495Z,52.70
2022-08-04T19:29:08.906Z,53.50
2022-08-04T19:31:41.538Z,53.50
2022-08-04T19:34:04.845Z,53.90
2022-08-04T19:36:32.435Z,54.50
2022-08-04T19:39:00.120Z,54.40
2022-08-04T19:41:27.624Z,54.60
2022-08-04T19:43:55.206Z,54.80
2022-08-04T19:46:24.936Z,54.90
2022-08-04T19:48:59.488Z,55.00
2022-08-04T19:51:19.160Z,55.40
2022-08-04T19:53:47.513Z,55.00
2022-08-04T19:56:15.146Z,55.00
2022-08-04T19:58:42.730Z,54.50
2022-08-04T20:01:31.384Z,53.20
2022-08-04T20:04:08.349Z,53.10
2022-08-04T20:06:05.481Z,52.90
2022-08-04T20:08:33.061Z,52.90
2022-08-04T20:11:01.033Z,53.10
2022-08-04T20:13:37.063Z,53.20
2022-08-04T20:18:36.041Z,54.00
2022-08-04T20:20:52.184Z,53.90
2022-08-04T20:23:19.759Z,54.00
2022-08-04T20:25:47.433Z,54.60
2022-08-04T20:28:36.267Z,55.20
2022-08-04T20:30:42.550Z,55.80
2022-08-04T20:33:10.172Z,56.10
2022-08-04T20:35:45.871Z,56.70
2022-08-04T20:38:05.331Z,56.90
2022-08-04T20:40:33.713Z,58.50
2022-08-04T20:43:02.056Z,58.60
2022-08-04T20:45:56.762Z,58.60
2022-08-04T20:47:57.253Z,59.10
2022-08-04T20:50:29.631Z,59.60
2022-08-04T20:52:52.401Z,60.20
2022-08-04T20:55:20.024Z,60.20
2022-08-04T20:57:50.648Z,60.80
2022-08-04T21:00:15.221Z,61.50
2022-08-04T21:02:44.544Z,61.50
2022-08-04T21:05:11.236Z,62.40
2022-08-04T21:07:41.902Z,62.30
2022-08-04T21:10:07.251Z,63.40
2022-08-04T21:12:34.826Z,63.30
2022-08-04T21:15:13.939Z,63.80
2022-08-04T21:17:58.277Z,65.60
2022-08-04T21:19:59.121Z,65.30
2022-08-04T21:22:33.120Z,65.30
2022-08-04T21:24:54.879Z,65.60
2022-08-04T21:27:22.623Z,66.10
2022-08-04T21:29:50.018Z,66.70
2022-08-04T21:32:18.683Z,68.80
2022-08-04T21:34:46.265Z,68.70
2022-08-04T21:37:14.655Z,72.50
2022-08-04T21:42:28.136Z,74.00
2022-08-04T21:44:37.373Z,77.60
2022-08-04T21:47:05.241Z,78.50
2022-08-04T21:49:32.835Z,80.80
2022-08-04T21:52:07.285Z,85.50
2022-08-04T21:54:28.780Z,85.10
2022-08-04T21:56:57.128Z,86.40
2022-08-04T21:59:31.059Z,86.30
2022-08-04T22:01:54.799Z,88.60
2022-08-04T22:04:21.768Z,92.20
2022-08-04T22:06:52.261Z,93.40
2022-08-04T22:09:17.076Z,94.50
2022-08-04T22:11:50.259Z,95.30
2022-08-04T22:14:12.236Z,96.00
2022-08-04T22:16:40.617Z,97.10
2022-08-04T22:19:10.922Z,97.60
2022-08-04T22:21:39.321Z,97.60
2022-08-04T22:24:05.082Z,98.00
2022-08-04T22:26:32.655Z,98.70
2022-08-04T22:29:00.229Z,99.00
2022-08-04T22:31:27.852Z,99.90
2022-08-04T22:33:56.270Z,99.90
2022-08-04T22:36:24.669Z,99.90
2022-08-04T22:39:00.290Z,99.90
2022-08-04T22:41:19.153Z,99.90
2022-08-04T22:43:47.506Z,99.90
2022-08-04T22:46:21.470Z,99.90
2022-08-04T22:48:49.250Z,99.90
2022-08-04T22:51:17.278Z,99.90
2022-08-04T22:53:48.776Z,99.90
2022-08-04T22:56:13.833Z,99.90
2022-08-04T22:58:45.172Z,99.90
2022-08-04T23:01:10.850Z,99.90
2022-08-04T23:03:38.850Z,99.90
2022-08-04T23:06:10.481Z,99.90
2022-08-04T23:08:38.067Z,99.90
2022-08-04T23:11:08.935Z,99.90
2022-08-04T23:13:37.169Z,99.90
2022-08-04T23:16:09.696Z,99.90
2022-08-04T23:18:36.984Z,99.90
2022-08-04T23:21:05.170Z,99.90
2022-08-04T23:23:33.031Z,99.90
2022-08-04T23:26:08.523Z,99.90
2022-08-04T23:28:30.501Z,99.90
2022-08-04T23:30:58.154Z,99.90
2022-08-04T23:33:49.062Z,99.90
2022-08-04T23:35:56.512Z,99.90
2022-08-04T23:38:30.643Z,99.90
2022-08-04T23:40:55.388Z,99.90
2022-08-04T23:43:23.646Z,99.90
2022-08-04T23:46:07.786Z,99.90
2022-08-04T23:48:21.244Z,99.90
2022-08-04T23:50:49.037Z,99.90
2022-08-04T23:53:18.608Z,99.90
2022-08-04T23:55:45.139Z,99.90
2022-08-04T23:58:20.911Z,99.90
